createdAt,value
2023-03-26T00:00:02.498Z,9.68
2023-03-26T00:02:06.603Z,9.70
2023-03-26T00:04:09.510Z,9.68
2023-03-26T00:06:14.320Z,9.67
2023-03-26T00:08:17.878Z,9.66
2023-03-26T00:10:20.876Z,9.65
2023-03-26T00:12:23.547Z,9.67
2023-03-26T00:14:27.115Z,9.64
2023-03-26T00:16:32.237Z,9.66
2023-03-26T00:18:35.192Z,9.62
2023-03-26T00:20:38.622Z,9.54
2023-03-26T00:22:41.813Z,9.58
2023-03-26T00:24:46.187Z,9.54
2023-03-26T00:26:53.562Z,9.56
2023-03-26T00:28:56.348Z,9.58
2023-03-26T00:31:04.427Z,9.57
2023-03-26T00:33:08.104Z,9.56
2023-03-26T00:35:11.248Z,9.57
2023-03-26T00:37:15.229Z,9.56
2023-03-26T00:39:18.088Z,9.55
2023-03-26T00:41:31.271Z,9.53
2023-03-26T00:43:36.141Z,9.52
2023-03-26T00:45:39.789Z,9.49
2023-03-26T00:47:43.789Z,9.54
2023-03-26T00:49:46.958Z,9.50
2023-03-26T00:51:49.594Z,9.53
2023-03-26T00:53:52.302Z,9.50
2023-03-26T00:56:00.543Z,9.51
2023-03-26T00:58:03.333Z,9.50
2023-03-26T01:00:14.785Z,9.49
2023-03-26T01:02:21.037Z,9.48
2023-03-26T01:04:31.487Z,9.49
2023-03-26T01:06:37.980Z,9.49
2023-03-26T01:08:46.937Z,9.45
2023-03-26T01:10:53.573Z,9.48
2023-03-26T01:12:56.299Z,9.49
2023-03-26T01:15:01.517Z,9.47
2023-03-26T01:17:07.918Z,9.46
2023-03-26T01:19:21.380Z,9.45
2023-03-26T01:21:30.488Z,9.44
2023-03-26T01:23:49.198Z,9.36
2023-03-26T01:26:05.883Z,9.40
2023-03-26T01:28:12.757Z,9.38
2023-03-26T01:30:27.291Z,9.37
2023-03-26T01:32:35.047Z,9.36
2023-03-26T01:35:06.705Z,9.34
2023-03-26T01:37:52.707Z,9.34
2023-03-26T01:40:06.305Z,9.31
2023-03-26T01:42:18.355Z,9.30
2023-03-26T01:44:41.694Z,9.30
2023-03-26T01:46:45.776Z,9.31
2023-03-26T01:48:49.062Z,9.29
2023-03-26T01:50:56.519Z,9.31
2023-03-26T01:52:59.197Z,9.31
2023-03-26T01:55:03.175Z,9.34
2023-03-26T01:57:06.223Z,9.34
2023-03-26T01:59:40.811Z,9.35
2023-03-26T02:02:07.143Z,9.35
2023-03-26T02:04:44.971Z,9.35
2023-03-26T02:07:25.839Z,9.35
2023-03-26T02:09:35.173Z,9.34
2023-03-26T02:11:40.971Z,9.31
2023-03-26T02:13:46.073Z,9.32
2023-03-26T02:15:57.414Z,9.31
2023-03-26T02:18:02.156Z,9.28
2023-03-26T02:20:06.147Z,9.34
2023-03-26T02:22:16.038Z,9.29
2023-03-26T02:24:20.011Z,9.27
2023-03-26T02:26:22.586Z,9.25
2023-03-26T02:28:25.181Z,9.26
2023-03-26T02:30:29.899Z,9.27
2023-03-26T02:32:32.943Z,9.28
2023-03-26T02:34:36.937Z,9.28
2023-03-26T02:36:39.675Z,9.26
2023-03-26T02:38:42.425Z,9.28
2023-03-26T02:40:45.161Z,9.32
2023-03-26T02:42:48.309Z,9.32
2023-03-26T02:44:51.006Z,9.28
2023-03-26T02:46:54.034Z,9.28
2023-03-26T02:48:56.672Z,9.27
2023-03-26T02:50:59.274Z,9.32
2023-03-26T02:53:01.886Z,9.31
2023-03-26T02:55:04.753Z,9.33
2023-03-26T02:57:07.444Z,9.28
2023-03-26T02:59:11.040Z,9.28
2023-03-26T03:01:13.796Z,9.27
2023-03-26T03:03:17.506Z,9.31
2023-03-26T03:05:20.481Z,9.35
2023-03-26T03:07:24.637Z,9.37
2023-03-26T03:09:27.246Z,9.39
2023-03-26T03:11:29.791Z,9.39
2023-03-26T03:13:32.413Z,9.41
2023-03-26T03:15:35.898Z,9.42
2023-03-26T03:17:38.655Z,9.44
2023-03-26T03:19:41.272Z,9.45
2023-03-26T03:21:44.024Z,9.48
2023-03-26T03:23:46.753Z,9.47
2023-03-26T03:25:51.031Z,9.48
2023-03-26T03:27:54.166Z,9.48
2023-03-26T03:29:59.151Z,9.48
2023-03-26T03:32:02.422Z,9.48
2023-03-26T03:34:05.269Z,9.50
2023-03-26T03:36:20.482Z,9.50
2023-03-26T03:38:24.529Z,9.48
2023-03-26T03:40:27.343Z,9.47
2023-03-26T03:42:30.001Z,9.47
2023-03-26T03:44:32.533Z,9.47
2023-03-26T03:46:35.344Z,9.47
2023-03-26T03:48:41.237Z,9.47
2023-03-26T03:50:43.885Z,9.50
2023-03-26T03:52:46.613Z,9.51
2023-03-26T03:54:49.695Z,9.54
2023-03-26T03:56:52.446Z,9.54
2023-03-26T03:58:55.741Z,9.57
2023-03-26T04:01:04.489Z,9.57
2023-03-26T04:03:10.256Z,9.56
2023-03-26T04:05:13.019Z,9.53
2023-03-26T04:07:15.702Z,9.55
2023-03-26T04:09:18.763Z,9.54
2023-03-26T04:11:21.572Z,9.55
2023-03-26T04:13:24.344Z,9.53
2023-03-26T04:15:27.000Z,9.53
2023-03-26T04:17:30.741Z,9.55
2023-03-26T04:19:33.389Z,9.53
2023-03-26T04:21:38.213Z,9.56
2023-03-26T04:23:42.537Z,9.54
2023-03-26T04:25:50.296Z,9.56
2023-03-26T04:27:55.874Z,9.57
2023-03-26T04:30:01.801Z,9.58
2023-03-26T04:32:08.575Z,9.56
2023-03-26T04:34:24.508Z,9.56
2023-03-26T04:36:29.958Z,9.59
2023-03-26T04:38:42.302Z,9.59
2023-03-26T04:40:47.611Z,9.56
2023-03-26T04:42:50.407Z,9.61
2023-03-26T04:44:52.980Z,9.57
2023-03-26T04:46:56.017Z,9.64
2023-03-26T04:48:58.595Z,9.68
2023-03-26T04:51:01.802Z,9.69
2023-03-26T04:53:05.010Z,9.69
2023-03-26T04:55:30.061Z,9.70
2023-03-26T04:57:37.471Z,9.70
2023-03-26T04:59:41.484Z,9.73
2023-03-26T05:01:46.191Z,9.80
2023-03-26T05:03:48.854Z,9.86
2023-03-26T05:05:51.703Z,9.93
2023-03-26T05:07:54.718Z,10.00
2023-03-26T05:09:57.796Z,10.09
2023-03-26T05:12:00.487Z,10.15
2023-03-26T05:14:03.226Z,10.25
2023-03-26T05:16:06.119Z,10.38
2023-03-26T05:18:08.986Z,10.43
2023-03-26T05:20:21.077Z,10.52
2023-03-26T05:22:23.736Z,10.63
2023-03-26T05:24:27.376Z,10.70
2023-03-26T05:26:30.230Z,10.71
2023-03-26T05:28:33.029Z,10.73
2023-03-26T05:30:35.848Z,10.72
2023-03-26T05:32:38.588Z,10.67
2023-03-26T05:34:41.875Z,10.68
2023-03-26T05:36:44.567Z,10.71
2023-03-26T05:38:50.117Z,10.75
2023-03-26T05:40:58.193Z,10.75
2023-03-26T05:43:00.870Z,10.73
2023-03-26T05:45:03.540Z,10.70
2023-03-26T05:47:06.227Z,10.69
2023-03-26T05:49:08.823Z,10.71
2023-03-26T05:51:12.491Z,10.70
2023-03-26T05:53:15.879Z,10.71
2023-03-26T05:55:18.759Z,10.67
2023-03-26T05:57:22.628Z,10.67
2023-03-26T05:59:25.791Z,10.70
2023-03-26T06:01:29.560Z,10.72
2023-03-26T06:03:33.534Z,10.81
2023-03-26T06:05:37.568Z,10.85
2023-03-26T06:07:40.542Z,10.90
2023-03-26T06:09:43.877Z,10.93
2023-03-26T06:11:46.672Z,10.99
2023-03-26T06:13:49.369Z,11.03
2023-03-26T06:15:52.468Z,11.06
2023-03-26T06:17:55.279Z,11.08
2023-03-26T06:19:58.691Z,11.13
2023-03-26T06:22:01.588Z,11.23
2023-03-26T06:24:04.450Z,11.28
2023-03-26T06:26:07.184Z,11.34
2023-03-26T06:28:10.052Z,11.41
2023-03-26T06:30:13.171Z,11.43
2023-03-26T06:32:20.176Z,11.47
2023-03-26T06:34:23.392Z,11.48
2023-03-26T06:36:26.303Z,11.49
2023-03-26T06:38:28.940Z,11.49
2023-03-26T06:40:33.854Z,11.45
2023-03-26T06:43:10.162Z,11.42
2023-03-26T06:44:59.649Z,11.39
2023-03-26T06:47:02.408Z,11.36
2023-03-26T06:49:05.143Z,11.41
2023-03-26T06:51:08.806Z,11.42
2023-03-26T06:53:11.795Z,11.36
2023-03-26T06:55:14.473Z,11.34
2023-03-26T06:57:17.382Z,11.29
2023-03-26T06:59:20.101Z,11.27
2023-03-26T07:01:23.203Z,11.29
2023-03-26T07:03:26.146Z,11.27
2023-03-26T07:05:28.772Z,11.23
2023-03-26T07:07:31.874Z,11.14
2023-03-26T07:09:34.687Z,11.16
2023-03-26T07:11:37.348Z,11.21
2023-03-26T07:13:40.323Z,11.25
2023-03-26T07:15:43.002Z,11.28
2023-03-26T07:17:45.931Z,11.25
2023-03-26T07:19:49.419Z,11.29
2023-03-26T07:21:52.669Z,11.29
2023-03-26T07:23:56.891Z,11.28
2023-03-26T07:26:12.529Z,11.30
2023-03-26T07:29:05.094Z,11.29
2023-03-26T07:31:23.645Z,11.32
2023-03-26T07:34:05.198Z,11.34
2023-03-26T07:36:22.676Z,11.41
2023-03-26T07:39:28.882Z,11.52
2023-03-26T07:41:59.615Z,11.68
2023-03-26T07:44:20.988Z,11.78
2023-03-26T07:46:35.085Z,11.87
2023-03-26T07:48:42.598Z,12.03
2023-03-26T07:50:45.837Z,12.18
2023-03-26T07:52:48.924Z,12.34
2023-03-26T07:54:52.041Z,12.46
2023-03-26T07:57:06.776Z,12.58
2023-03-26T07:59:21.643Z,12.63
2023-03-26T08:01:28.375Z,12.74
2023-03-26T08:04:23.272Z,12.80
2023-03-26T08:06:37.538Z,12.80
2023-03-26T08:08:53.397Z,12.85
2023-03-26T08:11:09.229Z,12.97
2023-03-26T08:13:30.854Z,13.04
2023-03-26T08:16:14.632Z,13.14
2023-03-26T08:18:33.085Z,13.16
2023-03-26T08:20:49.714Z,13.22
2023-03-26T08:23:05.858Z,13.27
2023-03-26T08:25:40.909Z,13.33
2023-03-26T08:27:52.745Z,13.40
2023-03-26T08:30:02.335Z,13.46
2023-03-26T08:32:14.112Z,13.51
2023-03-26T08:34:17.384Z,13.49
2023-03-26T08:36:20.247Z,13.53
2023-03-26T08:38:23.262Z,13.51
2023-03-26T08:41:03.590Z,13.50
2023-03-26T08:44:00.035Z,13.57
2023-03-26T08:46:18.770Z,13.52
2023-03-26T08:48:45.953Z,13.53
2023-03-26T08:50:54.295Z,13.47
2023-03-26T08:53:15.747Z,13.63
2023-03-26T08:55:52.237Z,13.75
2023-03-26T08:58:31.944Z,13.80
2023-03-26T09:00:59.296Z,13.80
2023-03-26T09:03:19.027Z,13.86
2023-03-26T09:05:59.109Z,13.80
2023-03-26T09:08:32.169Z,13.85
2023-03-26T09:11:02.996Z,14.01
2023-03-26T09:13:28.546Z,14.12
2023-03-26T09:15:36.714Z,14.14
2023-03-26T09:17:42.213Z,14.32
2023-03-26T09:20:00.194Z,14.50
2023-03-26T09:22:17.862Z,14.64
2023-03-26T09:24:56.436Z,14.66
2023-03-26T09:27:12.482Z,14.77
2023-03-26T09:29:37.402Z,14.89
2023-03-26T09:32:06.985Z,14.85
2023-03-26T09:34:47.203Z,14.86
2023-03-26T09:37:28.961Z,14.89
2023-03-26T09:40:05.588Z,14.88
2023-03-26T09:42:42.171Z,14.93
2023-03-26T09:45:06.672Z,15.00
2023-03-26T09:47:28.177Z,15.06
2023-03-26T09:49:39.088Z,15.12
2023-03-26T09:51:53.796Z,15.17
2023-03-26T09:54:28.530Z,15.11
2023-03-26T09:56:43.162Z,15.05
2023-03-26T09:58:55.439Z,15.06
2023-03-26T10:01:18.597Z,15.06
2023-03-26T10:03:29.170Z,15.20
2023-03-26T10:05:43.786Z,15.37
2023-03-26T10:08:20.466Z,15.50
2023-03-26T10:10:50.184Z,15.72
2023-03-26T10:13:14.509Z,15.81
2023-03-26T10:15:51.514Z,15.86
2023-03-26T10:18:39.358Z,15.96
2023-03-26T10:21:08.744Z,16.06
2023-03-26T10:23:36.047Z,16.16
2023-03-26T10:25:41.406Z,16.15
2023-03-26T10:28:01.981Z,16.16
2023-03-26T10:30:10.548Z,16.24
2023-03-26T10:32:26.278Z,16.34
2023-03-26T10:34:51.915Z,16.29
2023-03-26T10:37:26.021Z,16.32
2023-03-26T10:39:50.647Z,16.39
2023-03-26T10:41:56.229Z,16.40
2023-03-26T10:44:15.962Z,16.22
2023-03-26T10:46:18.616Z,16.13
2023-03-26T10:48:30.902Z,16.17
2023-03-26T10:51:00.937Z,16.18
2023-03-26T10:53:23.797Z,16.23
2023-03-26T10:55:34.156Z,16.33
2023-03-26T10:57:46.186Z,16.36
2023-03-26T10:59:48.842Z,16.38
2023-03-26T11:01:51.552Z,16.30
2023-03-26T11:03:55.989Z,16.19
2023-03-26T11:06:01.485Z,16.14
2023-03-26T11:08:35.699Z,16.06
2023-03-26T11:11:03.127Z,15.94
2023-03-26T11:13:46.776Z,15.84
2023-03-26T11:16:13.509Z,15.72
2023-03-26T11:18:35.508Z,15.73
2023-03-26T11:20:53.488Z,15.69
2023-03-26T11:23:12.121Z,15.61
2023-03-26T11:25:26.814Z,15.65
2023-03-26T11:27:56.618Z,15.64
2023-03-26T11:30:42.053Z,15.71
2023-03-26T11:32:48.620Z,15.77
2023-03-26T11:34:58.530Z,15.93
2023-03-26T11:37:08.717Z,16.04
2023-03-26T11:39:16.810Z,16.13
2023-03-26T11:41:23.581Z,16.20
2023-03-26T11:43:34.583Z,16.21
2023-03-26T11:45:42.522Z,16.24
2023-03-26T11:47:53.185Z,16.28
2023-03-26T11:49:59.723Z,16.48
2023-03-26T11:52:03.832Z,16.68
2023-03-26T11:54:11.428Z,16.75
2023-03-26T11:56:23.516Z,16.83
2023-03-26T11:58:35.077Z,16.90
2023-03-26T12:00:37.719Z,16.85
2023-03-26T12:02:41.639Z,17.01
2023-03-26T12:04:46.619Z,17.04
2023-03-26T12:06:54.150Z,17.09
2023-03-26T12:08:57.488Z,17.13
2023-03-26T12:11:07.200Z,17.17
2023-03-26T12:13:27.330Z,17.41
2023-03-26T12:15:34.126Z,17.50
2023-03-26T12:17:40.347Z,17.68
2023-03-26T12:19:45.762Z,17.84
2023-03-26T12:21:53.230Z,17.73
2023-03-26T12:24:05.454Z,17.68
2023-03-26T12:26:30.563Z,17.61
2023-03-26T12:28:33.329Z,17.51
2023-03-26T12:30:38.120Z,17.57
2023-03-26T12:32:46.742Z,17.62
2023-03-26T12:34:50.359Z,17.78
2023-03-26T12:37:00.233Z,17.74
2023-03-26T12:40:10.665Z,17.72
2023-03-26T12:44:44.118Z,17.83
2023-03-26T12:44:49.799Z,17.88
2023-03-26T12:48:00.459Z,17.91
2023-03-26T12:49:17.091Z,17.95
2023-03-26T12:51:19.860Z,17.92
2023-03-26T12:53:59.439Z,18.02
2023-03-26T12:56:36.509Z,18.08
2023-03-26T12:59:06.722Z,18.13
2023-03-26T13:01:27.186Z,18.26
2023-03-26T13:03:56.190Z,18.30
2023-03-26T13:06:06.920Z,18.29
2023-03-26T13:08:57.895Z,18.25
2023-03-26T13:11:06.373Z,17.94
2023-03-26T13:13:37.624Z,17.63
2023-03-26T13:15:53.103Z,17.36
2023-03-26T13:17:58.746Z,17.03
2023-03-26T13:20:12.385Z,16.86
2023-03-26T13:22:46.823Z,16.63
2023-03-26T13:24:59.958Z,16.52
2023-03-26T13:27:27.201Z,16.41
2023-03-26T13:29:38.615Z,16.32
2023-03-26T13:32:10.327Z,16.33
2023-03-26T13:34:38.291Z,16.36
2023-03-26T13:37:05.348Z,16.37
2023-03-26T13:39:36.912Z,16.33
2023-03-26T13:42:16.009Z,16.33
2023-03-26T13:44:45.024Z,16.24
2023-03-26T13:46:57.646Z,16.22
2023-03-26T13:49:13.949Z,16.23
2023-03-26T13:51:32.409Z,16.17
2023-03-26T13:53:44.098Z,16.11
2023-03-26T13:55:56.015Z,16.10
2023-03-26T13:58:17.511Z,15.97
2023-03-26T14:00:29.252Z,15.88
2023-03-26T14:02:37.037Z,15.77
2023-03-26T14:04:51.192Z,15.78
2023-03-26T14:07:04.123Z,15.70
2023-03-26T14:09:24.795Z,15.62
2023-03-26T14:11:36.732Z,15.56
2023-03-26T14:13:49.925Z,15.52
2023-03-26T14:15:58.247Z,15.47
2023-03-26T14:18:38.807Z,15.38
2023-03-26T14:20:47.979Z,15.30
2023-03-26T14:23:05.107Z,15.22
2023-03-26T14:26:08.787Z,15.12
2023-03-26T14:29:25.713Z,15.03
2023-03-26T14:31:35.957Z,14.98
2023-03-26T14:34:00.289Z,14.96
2023-03-26T14:36:28.054Z,14.88
2023-03-26T14:38:53.387Z,14.83
2023-03-26T14:41:40.071Z,14.76
2023-03-26T14:44:07.700Z,14.65
2023-03-26T14:46:38.070Z,14.49
2023-03-26T14:49:05.900Z,14.33
2023-03-26T14:51:56.610Z,14.16
2023-03-26T14:54:12.415Z,14.00
2023-03-26T14:56:33.740Z,13.88
2023-03-26T14:59:22.454Z,13.80
2023-03-26T15:02:07.359Z,13.64
2023-03-26T15:04:43.962Z,13.51
2023-03-26T15:07:23.989Z,13.43
2023-03-26T15:09:54.349Z,13.37
2023-03-26T15:12:12.820Z,13.28
2023-03-26T15:14:41.016Z,13.21
2023-03-26T15:17:04.742Z,13.13
2023-03-26T15:19:25.751Z,13.06
2023-03-26T15:21:31.420Z,13.00
2023-03-26T15:24:06.625Z,12.96
2023-03-26T15:26:10.054Z,12.91
2023-03-26T15:28:26.202Z,12.89
2023-03-26T15:30:48.780Z,12.86
2023-03-26T15:33:09.445Z,12.82
2023-03-26T15:35:32.310Z,12.82
2023-03-26T15:38:02.126Z,12.83
2023-03-26T15:40:26.737Z,12.77
2023-03-26T15:42:58.585Z,12.75
2023-03-26T15:45:08.068Z,12.67
2023-03-26T15:47:38.771Z,12.65
2023-03-26T15:50:09.584Z,12.56
2023-03-26T15:52:43.223Z,12.49
2023-03-26T15:54:53.583Z,12.43
2023-03-26T15:57:18.640Z,12.38
2023-03-26T15:59:31.148Z,12.36
2023-03-26T16:01:51.808Z,12.33
2023-03-26T16:04:17.645Z,12.34
2023-03-26T16:06:31.161Z,12.36
2023-03-26T16:08:38.895Z,12.36
2023-03-26T16:10:51.468Z,12.34
2023-03-26T16:13:12.883Z,12.31
2023-03-26T16:15:15.925Z,12.24
2023-03-26T16:17:23.446Z,12.18
2023-03-26T16:19:32.738Z,12.15
2023-03-26T16:21:56.263Z,12.09
2023-03-26T16:24:08.568Z,12.04
2023-03-26T16:26:35.656Z,11.98
2023-03-26T16:29:16.647Z,11.90
2023-03-26T16:31:37.302Z,11.81
2023-03-26T16:33:50.972Z,11.75
2023-03-26T16:36:31.259Z,11.70
2023-03-26T16:39:12.857Z,11.64
2023-03-26T16:41:23.728Z,11.56
2023-03-26T16:43:47.021Z,11.50
2023-03-26T16:45:52.445Z,11.49
2023-03-26T16:48:07.118Z,11.47
2023-03-26T16:50:18.982Z,11.47
2023-03-26T16:52:42.908Z,11.42
2023-03-26T16:54:57.351Z,11.33
2023-03-26T16:57:26.288Z,11.32
2023-03-26T17:00:04.925Z,11.28
2023-03-26T17:02:32.991Z,11.29
2023-03-26T17:04:37.123Z,11.28
2023-03-26T17:06:54.016Z,11.27
2023-03-26T17:09:01.504Z,11.28
2023-03-26T17:11:09.532Z,11.29
2023-03-26T17:13:23.340Z,11.29
2023-03-26T17:15:51.611Z,11.29
2023-03-26T17:18:05.240Z,11.26
2023-03-26T17:20:33.897Z,11.22
2023-03-26T17:22:42.672Z,11.17
2023-03-26T17:24:58.967Z,11.12
2023-03-26T17:27:28.530Z,11.09
2023-03-26T17:29:33.813Z,11.06
2023-03-26T17:31:42.029Z,11.02
2023-03-26T17:33:44.972Z,11.00
2023-03-26T17:35:51.443Z,10.99
2023-03-26T17:37:54.291Z,10.96
2023-03-26T17:40:09.698Z,10.96
2023-03-26T17:42:33.002Z,10.97
2023-03-26T17:44:43.868Z,10.91
2023-03-26T17:46:49.642Z,10.89
2023-03-26T17:49:12.544Z,10.89
2023-03-26T17:51:27.371Z,10.89
2023-03-26T17:53:32.734Z,10.91
2023-03-26T17:55:39.003Z,10.95
2023-03-26T17:57:47.705Z,10.96
2023-03-26T17:59:56.291Z,11.00
2023-03-26T18:02:05.727Z,11.01
2023-03-26T18:04:34.701Z,11.00
2023-03-26T18:07:14.501Z,11.01
2023-03-26T18:09:44.734Z,10.99
2023-03-26T18:11:59.205Z,10.98
2023-03-26T18:14:19.891Z,10.98
2023-03-26T18:16:37.171Z,10.96
2023-03-26T18:19:00.039Z,10.97
2023-03-26T18:21:07.422Z,11.00
2023-03-26T18:23:26.852Z,11.03
2023-03-26T18:25:34.144Z,11.06
2023-03-26T18:27:40.797Z,11.10
2023-03-26T18:30:14.504Z,11.13
2023-03-26T18:32:22.390Z,11.09
2023-03-26T18:34:26.814Z,11.05
2023-03-26T18:36:31.332Z,10.98
2023-03-26T18:38:35.465Z,10.93
2023-03-26T18:40:43.569Z,10.88
2023-03-26T18:42:52.492Z,10.82
2023-03-26T18:44:59.438Z,10.73
2023-03-26T18:47:08.015Z,10.67
2023-03-26T18:49:17.390Z,10.61
2023-03-26T18:51:23.294Z,10.54
2023-03-26T18:53:34.667Z,10.44
2023-03-26T18:55:40.291Z,10.41
2023-03-26T18:57:43.561Z,10.35
2023-03-26T18:59:50.560Z,10.33
2023-03-26T19:01:53.294Z,10.29
2023-03-26T19:03:56.477Z,10.26
2023-03-26T19:05:59.778Z,10.24
2023-03-26T19:08:05.628Z,10.20
2023-03-26T19:10:18.747Z,10.16
2023-03-26T19:12:30.108Z,10.12
2023-03-26T19:14:37.057Z,10.08
2023-03-26T19:16:43.726Z,10.11
2023-03-26T19:18:47.300Z,10.08
2023-03-26T19:20:54.623Z,10.05
2023-03-26T19:22:58.226Z,10.02
2023-03-26T19:25:02.894Z,10.00
2023-03-26T19:27:05.974Z,10.00
2023-03-26T19:29:14.172Z,9.94
2023-03-26T19:31:32.500Z,9.95
2023-03-26T19:33:37.990Z,9.95
2023-03-26T19:35:42.991Z,9.94
2023-03-26T19:37:54.575Z,9.93
2023-03-26T19:40:19.083Z,9.93
2023-03-26T19:42:43.062Z,9.88
2023-03-26T19:44:48.461Z,9.85
2023-03-26T19:46:53.765Z,9.86
2023-03-26T19:48:57.780Z,9.85
2023-03-26T19:51:05.080Z,9.84
2023-03-26T19:53:22.629Z,9.87
2023-03-26T19:55:25.560Z,9.88
2023-03-26T19:57:32.482Z,9.89
2023-03-26T19:59:35.174Z,9.92
2023-03-26T20:01:37.986Z,9.93
2023-03-26T20:03:43.056Z,9.98
2023-03-26T20:05:45.763Z,10.01
2023-03-26T20:07:50.394Z,10.06
2023-03-26T20:09:54.541Z,10.11
2023-03-26T20:11:57.341Z,10.12
2023-03-26T20:14:07.793Z,10.15
2023-03-26T20:16:19.255Z,10.17
2023-03-26T20:18:21.843Z,10.20
2023-03-26T20:20:26.343Z,10.17
2023-03-26T20:22:29.598Z,10.13
2023-03-26T20:24:33.206Z,10.19
2023-03-26T20:26:35.876Z,10.20
2023-03-26T20:28:47.395Z,10.19
2023-03-26T20:30:51.953Z,10.18
2023-03-26T20:33:11.842Z,10.20
2023-03-26T20:35:20.338Z,10.18
2023-03-26T20:37:39.244Z,10.18
2023-03-26T20:39:43.630Z,10.16
2023-03-26T20:41:49.283Z,10.14
2023-03-26T20:43:52.489Z,10.12
2023-03-26T20:45:55.898Z,10.12
2023-03-26T20:47:59.644Z,10.10
2023-03-26T20:50:02.497Z,10.08
2023-03-26T20:52:06.781Z,10.06
2023-03-26T20:54:16.573Z,10.12
2023-03-26T20:56:20.658Z,10.12
2023-03-26T20:58:31.417Z,10.16
2023-03-26T21:00:34.998Z,10.18
2023-03-26T21:02:37.776Z,10.20
2023-03-26T21:04:40.524Z,10.23
2023-03-26T21:06:43.829Z,10.23
2023-03-26T21:08:46.785Z,10.25
2023-03-26T21:10:49.940Z,10.26
2023-03-26T21:13:06.043Z,10.29
2023-03-26T21:15:22.492Z,10.32
2023-03-26T21:17:27.335Z,10.34
2023-03-26T21:19:30.287Z,10.34
2023-03-26T21:21:42.003Z,10.39
2023-03-26T21:23:58.055Z,10.40
2023-03-26T21:26:18.164Z,10.42
2023-03-26T21:28:32.206Z,10.40
2023-03-26T21:30:42.835Z,10.42
2023-03-26T21:32:46.607Z,10.43
2023-03-26T21:34:58.511Z,10.47
2023-03-26T21:37:02.013Z,10.48
2023-03-26T21:39:06.663Z,10.50
2023-03-26T21:41:24.655Z,10.54
2023-03-26T21:43:27.479Z,10.56
2023-03-26T21:45:30.481Z,10.62
2023-03-26T21:47:33.529Z,10.65
2023-03-26T21:49:37.374Z,10.69
2023-03-26T21:51:41.195Z,10.71
2023-03-26T21:53:44.117Z,10.71
2023-03-26T21:55:49.582Z,10.79
2023-03-26T21:58:12.811Z,10.82
2023-03-26T22:00:25.807Z,10.86
2023-03-26T22:03:00.591Z,10.83
2023-03-26T22:05:19.581Z,10.90
2023-03-26T22:07:42.971Z,10.87
2023-03-26T22:09:45.899Z,10.90
2023-03-26T22:11:48.489Z,10.93
2023-03-26T22:13:51.211Z,10.91
2023-03-26T22:15:54.227Z,10.90
2023-03-26T22:18:04.896Z,10.90
2023-03-26T22:20:10.441Z,10.90
2023-03-26T22:22:13.142Z,10.89
2023-03-26T22:24:15.739Z,10.88
2023-03-26T22:26:23.368Z,10.88
2023-03-26T22:28:27.235Z,10.86
2023-03-26T22:30:29.827Z,10.87
2023-03-26T22:32:34.494Z,10.88
2023-03-26T22:34:38.335Z,10.84
2023-03-26T22:36:41.009Z,10.89
2023-03-26T22:38:43.641Z,10.86
2023-03-26T22:40:54.228Z,10.89
2023-03-26T22:42:57.124Z,10.85
2023-03-26T22:44:59.770Z,10.86
2023-03-26T22:47:02.400Z,10.81
2023-03-26T22:49:05.032Z,10.76
2023-03-26T22:51:09.376Z,10.76
2023-03-26T22:53:12.158Z,10.72
2023-03-26T22:55:15.787Z,10.64
2023-03-26T22:57:32.191Z,10.58
2023-03-26T22:59:34.872Z,10.54
2023-03-26T23:01:37.798Z,10.53
2023-03-26T23:03:41.008Z,10.55
2023-03-26T23:05:43.623Z,10.57
2023-03-26T23:07:46.393Z,10.60
2023-03-26T23:09:49.080Z,10.62
2023-03-26T23:11:52.043Z,10.65
2023-03-26T23:13:54.655Z,10.64
2023-03-26T23:15:57.342Z,10.70
2023-03-26T23:18:00.107Z,10.74
2023-03-26T23:20:13.731Z,10.74
2023-03-26T23:22:16.962Z,10.72
2023-03-26T23:24:19.950Z,10.65
2023-03-26T23:26:24.295Z,10.68
2023-03-26T23:28:30.392Z,10.68
2023-03-26T23:30:33.020Z,10.62
2023-03-26T23:32:38.075Z,10.52
2023-03-26T23:34:52.121Z,10.50
2023-03-26T23:36:55.414Z,10.41
2023-03-26T23:38:59.139Z,10.40
2023-03-26T23:41:02.550Z,10.32
2023-03-26T23:43:05.828Z,10.30
2023-03-26T23:45:08.835Z,10.25
2023-03-26T23:47:11.486Z,10.23
2023-03-26T23:49:15.110Z,10.18
2023-03-26T23:51:20.307Z,10.16
2023-03-26T23:53:25.046Z,10.15
2023-03-26T23:55:27.892Z,10.11
2023-03-26T23:57:30.764Z,10.07
2023-03-26T23:59:35.328Z,10.11
